createdAt,value
2018-05-26T00:02:15.357Z,98281
2018-05-26T00:04:44.700Z,98284
2018-05-26T00:07:14.014Z,98285
2018-05-26T00:09:43.407Z,98283
2018-05-26T00:12:12.721Z,98287
2018-05-26T00:14:41.965Z,98287
2018-05-26T00:17:11.322Z,98291
2018-05-26T00:19:41.545Z,98288
2018-05-26T00:22:10.951Z,98289
2018-05-26T00:24:41.069Z,98287
2018-05-26T00:27:10.375Z,98289
2018-05-26T00:29:40.483Z,98293
2018-05-26T00:32:09.894Z,98296
2018-05-26T00:34:39.284Z,98293
2018-05-26T00:37:08.605Z,98288
2018-05-26T00:39:37.901Z,98285
2018-05-26T00:42:07.303Z,98287
2018-05-26T00:44:36.610Z,98283
2018-05-26T00:47:06.009Z,98287
2018-05-26T00:49:35.308Z,98285
2018-05-26T00:52:04.715Z,98286
2018-05-26T00:54:34.119Z,98283
2018-05-26T00:57:03.421Z,98279
2018-05-26T00:59:33.540Z,98279
2018-05-26T01:02:04.582Z,98276
2018-05-26T01:04:40.415Z,98276
2018-05-26T01:07:10.864Z,98281
2018-05-26T01:09:40.275Z,98283
2018-05-26T01:12:10.389Z,98285
2018-05-26T01:14:39.791Z,98283
2018-05-26T01:17:09.194Z,98287
2018-05-26T01:19:38.486Z,98288
2018-05-26T01:22:07.801Z,98289
2018-05-26T01:24:37.098Z,98284
2018-05-26T01:27:06.384Z,98283
2018-05-26T01:29:35.648Z,98282
2018-05-26T01:32:04.987Z,98276
2018-05-26T01:34:34.307Z,98271
2018-05-26T01:37:04.425Z,98267
2018-05-26T01:39:33.833Z,98267
2018-05-26T01:42:03.893Z,98265
2018-05-26T01:44:33.250Z,98266
2018-05-26T01:47:03.368Z,98265
2018-05-26T01:49:32.774Z,98265
2018-05-26T01:52:02.062Z,98267
2018-05-26T01:54:31.376Z,98271
2018-05-26T01:57:00.679Z,98266
2018-05-26T01:59:30.797Z,98267
2018-05-26T02:02:00.098Z,98269
2018-05-26T02:04:29.504Z,98277
2018-05-26T02:06:58.908Z,98276
2018-05-26T02:09:28.973Z,98280
2018-05-26T02:11:58.328Z,98278
2018-05-26T02:14:27.723Z,98281
2018-05-26T02:16:57.033Z,98276
2018-05-26T02:19:26.331Z,98279
2018-05-26T02:21:55.839Z,98279
2018-05-26T02:24:25.137Z,98281
2018-05-26T02:26:54.427Z,98283
2018-05-26T02:29:23.744Z,98283
2018-05-26T02:31:53.045Z,98288
2018-05-26T02:34:23.166Z,98287
2018-05-26T02:36:52.467Z,98290
2018-05-26T02:39:21.860Z,98287
2018-05-26T02:41:52.708Z,98286
2018-05-26T02:44:22.833Z,98289
2018-05-26T02:46:52.894Z,98289
2018-05-26T02:49:22.251Z,98290
2018-05-26T02:51:51.555Z,98289
2018-05-26T02:54:20.957Z,98289
2018-05-26T02:56:51.075Z,98286
2018-05-26T02:59:20.479Z,98288
2018-05-26T03:01:49.780Z,98292
2018-05-26T03:04:24.815Z,98295
2018-05-26T03:06:59.749Z,98297
2018-05-26T03:09:35.339Z,98297
2018-05-26T03:12:10.230Z,98297
2018-05-26T03:14:45.006Z,98297
2018-05-26T03:17:14.408Z,98293
2018-05-26T03:19:43.773Z,98293
2018-05-26T03:22:13.886Z,98295
2018-05-26T03:24:43.288Z,98299
2018-05-26T03:27:12.597Z,98306
2018-05-26T03:29:42.712Z,98307
2018-05-26T03:32:12.015Z,98312
2018-05-26T03:34:41.315Z,98315
2018-05-26T03:37:10.717Z,98315
2018-05-26T03:39:40.023Z,98322
2018-05-26T03:42:09.426Z,98321
2018-05-26T03:44:39.546Z,98317
2018-05-26T03:47:09.664Z,98317
2018-05-26T03:49:40.501Z,98321
2018-05-26T03:52:10.007Z,98321
2018-05-26T03:58:06.766Z,98328
2018-05-26T04:00:36.076Z,98324
2018-05-26T04:03:05.469Z,98327
2018-05-26T04:05:34.786Z,98331
2018-05-26T04:08:04.900Z,98336
2018-05-26T04:10:34.303Z,98335
2018-05-26T04:13:03.708Z,98334
2018-05-26T04:15:32.974Z,98337
2018-05-26T04:18:02.212Z,98346
2018-05-26T04:20:31.507Z,98346
2018-05-26T04:23:00.810Z,98348
2018-05-26T04:25:30.933Z,98348
2018-05-26T04:28:00.221Z,98343
2018-05-26T04:30:29.513Z,98347
2018-05-26T04:32:58.828Z,98347
2018-05-26T04:35:28.269Z,98348
2018-05-26T04:37:57.637Z,98347
2018-05-26T04:40:26.942Z,98340
2018-05-26T04:42:56.189Z,98338
2018-05-26T04:45:25.544Z,98339
2018-05-26T04:47:54.847Z,98340
2018-05-26T04:50:24.147Z,98335
2018-05-26T04:52:53.453Z,98337
2018-05-26T04:55:22.852Z,98337
2018-05-26T04:57:52.259Z,98338
2018-05-26T05:00:21.557Z,98333
2018-05-26T05:02:51.678Z,98339
2018-05-26T05:05:20.979Z,98341
2018-05-26T05:07:50.383Z,98341
2018-05-26T05:10:19.683Z,98345
2018-05-26T05:12:49.087Z,98347
2018-05-26T05:15:18.391Z,98349
2018-05-26T05:17:47.791Z,98351
2018-05-26T05:20:17.913Z,98348
2018-05-26T05:22:47.289Z,98347
2018-05-26T05:25:16.609Z,98349
2018-05-26T05:27:45.918Z,98347
2018-05-26T05:30:16.040Z,98351
2018-05-26T05:32:45.348Z,98352
2018-05-26T05:35:15.463Z,98351
2018-05-26T05:37:45.580Z,98355
2018-05-26T05:40:14.946Z,98359
2018-05-26T05:42:44.238Z,98359
2018-05-26T05:45:13.468Z,98361
2018-05-26T05:47:42.792Z,98366
2018-05-26T05:50:12.907Z,98364
2018-05-26T05:52:42.274Z,98363
2018-05-26T05:55:11.611Z,98365
2018-05-26T05:57:41.016Z,98367
2018-05-26T06:00:10.318Z,98363
2018-05-26T06:02:40.386Z,98363
2018-05-26T06:05:09.724Z,98365
2018-05-26T06:07:39.042Z,98368
2018-05-26T06:10:08.340Z,98372
2018-05-26T06:12:37.745Z,98371
2018-05-26T06:15:07.093Z,98376
2018-05-26T06:17:36.454Z,98381
2018-05-26T06:20:07.493Z,98381
2018-05-26T06:22:36.794Z,98387
2018-05-26T06:25:06.201Z,98389
2018-05-26T06:27:35.499Z,98393
2018-05-26T06:30:04.850Z,98393
2018-05-26T06:32:34.204Z,98392
2018-05-26T06:35:03.606Z,98393
2018-05-26T06:37:32.902Z,98393
2018-05-26T06:40:02.209Z,98395
2018-05-26T06:42:31.613Z,98400
2018-05-26T06:45:00.914Z,98398
2018-05-26T06:47:30.322Z,98400
2018-05-26T06:50:00.438Z,98398
2018-05-26T06:52:29.744Z,98401
2018-05-26T06:54:59.860Z,98400
2018-05-26T06:57:29.263Z,98398
2018-05-26T06:59:58.567Z,98404
2018-05-26T07:02:27.969Z,98392
2018-05-26T07:04:57.372Z,98391
2018-05-26T07:07:26.780Z,98388
2018-05-26T07:09:56.281Z,98384
2018-05-26T07:12:25.570Z,98384
2018-05-26T07:14:54.883Z,98383
2018-05-26T07:17:24.176Z,98377
2018-05-26T07:19:53.594Z,98379
2018-05-26T07:22:22.891Z,98373
2018-05-26T07:24:52.295Z,98372
2018-05-26T07:27:21.595Z,98368
2018-05-26T07:29:51.005Z,98363
2018-05-26T07:32:21.119Z,98357
2018-05-26T07:34:51.241Z,98359
2018-05-26T07:37:21.360Z,98353
2018-05-26T07:39:50.664Z,98354
2018-05-26T07:42:19.962Z,98357
2018-05-26T07:44:49.247Z,98354
2018-05-26T07:47:18.624Z,98356
2018-05-26T07:49:47.867Z,98358
2018-05-26T07:52:17.271Z,98346
2018-05-26T07:54:46.560Z,98351
2018-05-26T07:57:15.873Z,98347
2018-05-26T07:59:45.931Z,98344
2018-05-26T08:02:15.295Z,98347
2018-05-26T08:04:44.604Z,98349
2018-05-26T08:07:14.819Z,98346
2018-05-26T08:09:44.205Z,98347
2018-05-26T08:12:13.518Z,98346
2018-05-26T08:14:42.826Z,98350
2018-05-26T08:17:12.181Z,98346
2018-05-26T08:19:41.530Z,98348
2018-05-26T08:22:10.832Z,98344
2018-05-26T08:24:40.173Z,98350
2018-05-26T08:27:09.538Z,98355
2018-05-26T08:29:38.830Z,98352
2018-05-26T08:32:08.138Z,98351
2018-05-26T08:34:37.384Z,98351
2018-05-26T08:37:06.741Z,98348
2018-05-26T08:39:36.042Z,98350
2018-05-26T08:42:05.448Z,98346
2018-05-26T08:44:35.566Z,98353
2018-05-26T08:47:04.970Z,98356
2018-05-26T08:49:34.378Z,98354
2018-05-26T08:52:04.444Z,98352
2018-05-26T08:54:33.795Z,98353
2018-05-26T08:57:03.098Z,98351
2018-05-26T08:59:32.500Z,98352
2018-05-26T09:02:01.882Z,98353
2018-05-26T09:04:31.205Z,98356
2018-05-26T09:07:00.506Z,98354
2018-05-26T09:09:29.934Z,98347
2018-05-26T09:12:00.030Z,98345
2018-05-26T09:14:29.437Z,98349
2018-05-26T09:16:58.838Z,98341
2018-05-26T09:19:28.143Z,98343
2018-05-26T09:21:57.460Z,98345
2018-05-26T09:24:26.740Z,98345
2018-05-26T09:26:56.040Z,98348
2018-05-26T09:29:25.447Z,98347
2018-05-26T09:31:54.850Z,98348
2018-05-26T09:34:24.977Z,98347
2018-05-26T09:36:55.100Z,98346
2018-05-26T09:39:25.211Z,98336
2018-05-26T09:41:54.511Z,98338
2018-05-26T09:44:23.916Z,98338
2018-05-26T09:46:54.741Z,98340
2018-05-26T09:49:24.062Z,98334
2018-05-26T09:51:54.174Z,98329
2018-05-26T09:54:23.475Z,98324
2018-05-26T09:56:52.779Z,98327
2018-05-26T09:59:22.182Z,98320
2018-05-26T10:01:51.483Z,98320
2018-05-26T10:04:20.836Z,98321
2018-05-26T10:06:50.086Z,98318
2018-05-26T10:09:19.487Z,98316
2018-05-26T10:11:48.790Z,98316
2018-05-26T10:14:18.090Z,98322
2018-05-26T10:16:47.392Z,98315
2018-05-26T10:19:16.693Z,98317
2018-05-26T10:21:46.098Z,98311
2018-05-26T10:24:15.402Z,98307
2018-05-26T10:26:44.696Z,98305
2018-05-26T10:29:14.005Z,98305
2018-05-26T10:31:43.404Z,98304
2018-05-26T10:34:12.690Z,98303
2018-05-26T10:36:42.006Z,98305
2018-05-26T10:39:11.561Z,98304
2018-05-26T10:41:40.916Z,98302
2018-05-26T10:44:10.202Z,98301
2018-05-26T10:46:39.620Z,98299
2018-05-26T10:49:09.732Z,98303
2018-05-26T10:51:39.765Z,98303
2018-05-26T10:54:09.864Z,98301
2018-05-26T10:56:39.185Z,98300
2018-05-26T10:59:08.483Z,98297
2018-05-26T11:01:37.784Z,98293
2018-05-26T11:04:07.134Z,98290
2018-05-26T11:06:47.445Z,98296
2018-05-26T11:09:16.748Z,98297
2018-05-26T11:11:46.149Z,98304
2018-05-26T11:14:15.452Z,98303
2018-05-26T11:16:44.857Z,98292
2018-05-26T11:19:14.260Z,98297
2018-05-26T11:21:43.560Z,98295
2018-05-26T11:24:12.994Z,98293
2018-05-26T11:26:42.206Z,98291
2018-05-26T11:29:11.572Z,98295
2018-05-26T11:31:41.690Z,98294
2018-05-26T11:34:11.790Z,98291
2018-05-26T11:36:41.107Z,98286
2018-05-26T11:39:10.412Z,98286
2018-05-26T11:41:39.710Z,98288
2018-05-26T11:44:09.777Z,98285
2018-05-26T11:46:39.179Z,98285
2018-05-26T11:49:08.536Z,98283
2018-05-26T11:51:38.601Z,98280
2018-05-26T11:54:07.843Z,98281
2018-05-26T11:56:37.158Z,98275
2018-05-26T11:59:06.449Z,98276
2018-05-26T12:01:35.764Z,98276
2018-05-26T12:04:05.163Z,98269
2018-05-26T12:06:34.470Z,98272
2018-05-26T12:09:03.971Z,98273
2018-05-26T12:11:33.276Z,98273
2018-05-26T12:14:02.672Z,98269
2018-05-26T12:16:31.983Z,98267
2018-05-26T12:19:02.097Z,98266
2018-05-26T12:21:31.395Z,98271
2018-05-26T12:24:00.707Z,98269
2018-05-26T12:26:30.819Z,98259
2018-05-26T12:29:00.213Z,98257
2018-05-26T12:31:29.524Z,98263
2018-05-26T12:33:58.950Z,98260
2018-05-26T12:36:29.037Z,98263
2018-05-26T12:38:58.351Z,98256
2018-05-26T12:41:27.651Z,98259
2018-05-26T12:43:56.958Z,98250
2018-05-26T12:46:27.073Z,98251
2018-05-26T12:48:56.373Z,98252
2018-05-26T12:51:25.780Z,98248
2018-05-26T12:53:55.071Z,98240
2018-05-26T12:56:24.381Z,98243
2018-05-26T12:58:53.784Z,98239
2018-05-26T13:01:23.093Z,98245
2018-05-26T13:03:53.205Z,98242
2018-05-26T13:06:22.506Z,98245
2018-05-26T13:08:51.910Z,98238
2018-05-26T13:11:21.207Z,98239
2018-05-26T13:13:50.622Z,98237
2018-05-26T13:16:20.740Z,98237
2018-05-26T13:18:50.140Z,98232
2018-05-26T13:21:19.445Z,98229
2018-05-26T13:23:49.562Z,98229
2018-05-26T13:26:19.632Z,98225
2018-05-26T13:28:48.983Z,98218
2018-05-26T13:31:18.284Z,98219
2018-05-26T13:33:48.404Z,98215
2018-05-26T13:36:17.813Z,98226
2018-05-26T13:38:47.110Z,98219
2018-05-26T13:41:16.411Z,98216
2018-05-26T13:43:45.712Z,98220
2018-05-26T13:46:15.104Z,98215
2018-05-26T13:48:44.420Z,98211
2018-05-26T13:51:13.882Z,98214
2018-05-26T13:53:43.280Z,98208
2018-05-26T13:56:12.706Z,98199
2018-05-26T13:58:42.037Z,98202
2018-05-26T14:01:12.150Z,98194
2018-05-26T14:03:41.451Z,98189
2018-05-26T14:06:10.755Z,98193
2018-05-26T14:08:40.159Z,98195
2018-05-26T14:11:09.560Z,98191
2018-05-26T14:13:38.966Z,98186
2018-05-26T14:16:08.367Z,98188
2018-05-26T14:18:37.772Z,98185
2018-05-26T14:21:07.175Z,98183
2018-05-26T14:23:36.465Z,98177
2018-05-26T14:26:05.778Z,98178
2018-05-26T14:28:35.069Z,98175
2018-05-26T14:31:05.917Z,98172
2018-05-26T14:33:35.218Z,98173
2018-05-26T14:36:05.343Z,98177
2018-05-26T14:38:34.743Z,98172
2018-05-26T14:41:04.850Z,98167
2018-05-26T14:43:34.164Z,98167
2018-05-26T14:46:05.111Z,98168
2018-05-26T14:48:35.224Z,98163
2018-05-26T14:51:04.628Z,98159
2018-05-26T14:53:33.973Z,98158
2018-05-26T14:56:03.321Z,98150
2018-05-26T14:58:32.686Z,98150
2018-05-26T15:01:02.027Z,98151
2018-05-26T15:03:31.441Z,98154
2018-05-26T15:06:00.737Z,98158
2018-05-26T15:08:30.025Z,98164
2018-05-26T15:10:59.340Z,98166
2018-05-26T15:13:28.749Z,98164
2018-05-26T15:15:58.871Z,98165
2018-05-26T15:18:28.265Z,98167
2018-05-26T15:20:59.102Z,98166
2018-05-26T15:23:28.394Z,98160
2018-05-26T15:25:57.716Z,98166
2018-05-26T15:28:27.836Z,98163
2018-05-26T15:30:57.953Z,98165
2018-05-26T15:33:27.361Z,98164
2018-05-26T15:35:56.759Z,98169
2018-05-26T15:38:26.068Z,98168
2018-05-26T15:40:56.181Z,98162
2018-05-26T15:43:25.483Z,98164
2018-05-26T15:45:54.889Z,98172
2018-05-26T15:48:24.176Z,98170
2018-05-26T15:50:53.488Z,98168
2018-05-26T15:53:22.787Z,98160
2018-05-26T15:55:52.149Z,98159
2018-05-26T15:58:21.496Z,98152
2018-05-26T16:00:50.796Z,98151
2018-05-26T16:03:20.098Z,98160
2018-05-26T16:05:49.399Z,98164
2018-05-26T16:08:18.804Z,98169
2018-05-26T16:10:48.104Z,98168
2018-05-26T16:13:17.411Z,98168
2018-05-26T16:15:47.360Z,98161
2018-05-26T16:18:16.723Z,98162
2018-05-26T16:20:46.030Z,98165
2018-05-26T16:23:15.322Z,98172
2018-05-26T16:25:44.614Z,98171
2018-05-26T16:28:13.938Z,98171
2018-05-26T16:30:44.055Z,98178
2018-05-26T16:33:13.410Z,98180
2018-05-26T16:35:42.756Z,98182
2018-05-26T16:38:12.056Z,98179
2018-05-26T16:40:41.457Z,98178
2018-05-26T16:43:10.863Z,98181
2018-05-26T16:45:40.161Z,98176
2018-05-26T16:48:09.467Z,98177
2018-05-26T16:50:38.771Z,98172
2018-05-26T16:53:08.163Z,98179
2018-05-26T16:55:37.475Z,98173
2018-05-26T16:58:06.883Z,98175
2018-05-26T17:00:36.985Z,98175
2018-05-26T17:03:06.298Z,98183
2018-05-26T17:05:37.134Z,98177
2018-05-26T17:08:06.436Z,98172
2018-05-26T17:10:35.737Z,98177
2018-05-26T17:13:05.086Z,98167
2018-05-26T17:15:34.441Z,98170
2018-05-26T17:18:03.745Z,98170
2018-05-26T17:20:33.148Z,98166
2018-05-26T17:23:03.266Z,98164
2018-05-26T17:25:32.673Z,98162
2018-05-26T17:28:01.972Z,98164
2018-05-26T17:30:31.377Z,98168
2018-05-26T17:33:00.665Z,98169
2018-05-26T17:35:29.978Z,98169
2018-05-26T17:37:59.282Z,98170
2018-05-26T17:40:28.684Z,98161
2018-05-26T17:42:58.054Z,98161
2018-05-26T17:45:27.388Z,98156
2018-05-26T17:47:56.683Z,98158
2018-05-26T17:50:27.526Z,98159
2018-05-26T17:52:56.827Z,98160
2018-05-26T17:55:26.128Z,98156
2018-05-26T17:57:55.432Z,98156
2018-05-26T18:00:24.732Z,98162
2018-05-26T18:02:54.029Z,98163
2018-05-26T18:05:23.336Z,98160
2018-05-26T18:07:52.634Z,98164
2018-05-26T18:10:22.040Z,98155
2018-05-26T18:12:51.340Z,98154
2018-05-26T18:15:20.733Z,98152
2018-05-26T18:17:49.998Z,98154
2018-05-26T18:20:19.451Z,98156
2018-05-26T18:22:48.756Z,98161
2018-05-26T18:25:18.871Z,98167
2018-05-26T18:27:48.173Z,98169
2018-05-26T18:30:17.473Z,98173
2018-05-26T18:32:46.925Z,98168
2018-05-26T18:35:16.123Z,98172
2018-05-26T18:37:45.479Z,98171
2018-05-26T18:40:14.781Z,98177
2018-05-26T18:42:44.081Z,98187
2018-05-26T18:45:13.383Z,98190
2018-05-26T18:47:42.790Z,98190
2018-05-26T18:50:12.190Z,98190
2018-05-26T18:52:41.494Z,98195
2018-05-26T18:55:10.793Z,98194
2018-05-26T18:57:40.097Z,98195
2018-05-26T19:00:10.215Z,98199
2018-05-26T19:02:40.334Z,98200
2018-05-26T19:05:14.699Z,98202
2018-05-26T19:07:44.365Z,98204
2018-05-26T19:10:13.768Z,98209
2018-05-26T19:12:43.076Z,98212
2018-05-26T19:15:13.190Z,98219
2018-05-26T19:17:42.594Z,98222
2018-05-26T19:20:11.996Z,98229
2018-05-26T19:22:41.399Z,98231
2018-05-26T19:25:10.805Z,98238
2018-05-26T19:27:40.107Z,98237
2018-05-26T19:30:09.402Z,98237
2018-05-26T19:32:38.706Z,98243
2018-05-26T19:35:08.012Z,98242
2018-05-26T19:37:37.413Z,98239
2018-05-26T19:40:06.714Z,98239
2018-05-26T19:42:36.115Z,98240
2018-05-26T19:45:05.421Z,98239
2018-05-26T19:47:34.721Z,98247
2018-05-26T19:50:04.170Z,98246
2018-05-26T19:52:33.526Z,98250
2018-05-26T19:55:04.361Z,98251
2018-05-26T19:57:33.667Z,98248
2018-05-26T20:00:03.071Z,98259
2018-05-26T20:02:32.371Z,98268
2018-05-26T20:05:01.775Z,98266
2018-05-26T20:07:31.075Z,98269
2018-05-26T20:10:00.377Z,98268
2018-05-26T20:12:29.678Z,98265
2018-05-26T20:14:59.081Z,98268
2018-05-26T20:17:28.383Z,98266
2018-05-26T20:19:57.685Z,98272
2018-05-26T20:22:27.088Z,98266
2018-05-26T20:24:56.389Z,98268
2018-05-26T20:27:25.791Z,98262
2018-05-26T20:29:55.095Z,98260
2018-05-26T20:32:25.213Z,98264
2018-05-26T20:34:54.510Z,98270
2018-05-26T20:37:23.818Z,98267
2018-05-26T20:39:53.066Z,98270
2018-05-26T20:42:22.409Z,98269
2018-05-26T20:44:51.721Z,98280
2018-05-26T20:47:21.786Z,98279
2018-05-26T20:49:51.143Z,98279
2018-05-26T20:52:20.445Z,98277
2018-05-26T20:54:49.736Z,98277
2018-05-26T20:57:19.046Z,98288
2018-05-26T20:59:48.459Z,98288
2018-05-26T21:02:18.571Z,98292
2018-05-26T21:04:48.075Z,98298
2018-05-26T21:07:17.384Z,98305
2018-05-26T21:09:47.498Z,98307
2018-05-26T21:12:16.903Z,98308
2018-05-26T21:14:46.208Z,98311
2018-05-26T21:17:15.606Z,98317
2018-05-26T21:19:44.914Z,98319
2018-05-26T21:22:15.028Z,98308
2018-05-26T21:24:44.377Z,98310
2018-05-26T21:27:13.686Z,98312
2018-05-26T21:29:43.028Z,98306
2018-05-26T21:32:12.340Z,98305
2018-05-26T21:34:42.456Z,98306
2018-05-26T21:37:11.699Z,98303
2018-05-26T21:39:41.059Z,98307
2018-05-26T21:42:10.355Z,98307
2018-05-26T21:44:39.645Z,98310
2018-05-26T21:47:08.971Z,98305
2018-05-26T21:49:39.082Z,98309
2018-05-26T21:52:08.486Z,98313
2018-05-26T21:54:37.882Z,98315
2018-05-26T21:57:07.192Z,98312
2018-05-26T21:59:36.438Z,98316
2018-05-26T22:02:05.793Z,98311
2018-05-26T22:04:35.038Z,98311
2018-05-26T22:07:04.337Z,98316
2018-05-26T22:09:33.642Z,98321
2018-05-26T22:12:02.998Z,98316
2018-05-26T22:14:33.798Z,98313
2018-05-26T22:17:03.750Z,98307
2018-05-26T22:19:33.865Z,98313
2018-05-26T22:22:04.095Z,98306
2018-05-26T22:24:33.936Z,98310
2018-05-26T22:27:04.080Z,98307
2018-05-26T22:29:35.453Z,98312
2018-05-26T22:32:04.883Z,98312
2018-05-26T22:34:34.287Z,98315
2018-05-26T22:37:04.338Z,98313
2018-05-26T22:39:35.733Z,98311
2018-05-26T22:42:06.527Z,98308
2018-05-26T22:44:37.610Z,98311
2018-05-26T22:47:08.437Z,98306
2018-05-26T22:49:39.460Z,98306
2018-05-26T22:52:09.382Z,98310
2018-05-26T22:54:42.485Z,98308
2018-05-26T22:57:13.142Z,98312
2018-05-26T22:59:43.241Z,98308
2018-05-26T23:02:13.153Z,98312
2018-05-26T23:04:47.438Z,98306
2018-05-26T23:07:17.911Z,98305
2018-05-26T23:09:47.751Z,98301
2018-05-26T23:12:17.153Z,98297
2018-05-26T23:14:46.404Z,98299
2018-05-26T23:17:15.744Z,98292
2018-05-26T23:19:45.056Z,98296
2018-05-26T23:22:14.405Z,98300
2018-05-26T23:24:43.766Z,98298
2018-05-26T23:27:13.166Z,98293
2018-05-26T23:29:42.466Z,98293
2018-05-26T23:32:11.861Z,98297
2018-05-26T23:34:41.378Z,98297
2018-05-26T23:37:10.677Z,98301
2018-05-26T23:39:40.083Z,98305
2018-05-26T23:42:09.373Z,98307
2018-05-26T23:44:38.684Z,98297
2018-05-26T23:47:07.981Z,98295
2018-05-26T23:49:37.287Z,98289
2018-05-26T23:52:07.407Z,98288
2018-05-26T23:54:36.809Z,98286
2018-05-26T23:57:06.112Z,98289
2018-05-26T23:59:35.515Z,98290
